Time;durP1;ratioP1;P1;durP2;ratioP2;P2;SDS_P1;SDS_P2;PMS_P1;PMS_P2;Temp;Humidity;BMP_temperature;BMP_pressure;BME280_temperature;BME280_humidity;BME280_pressure;Samples;Min_cycle;Max_cycle;Signal;HPM_P1;HPM_P2
2023/09/13 00:01:10;;;;;;;;;4.75;4.75;;;;;26.18;51.77;101084.03;4921540;28;45349;-44
2023/09/13 00:03:36;;;;;;;;;9.25;6.75;;;;;26.18;51.35;101084.03;4921766;28;45455;-44
2023/09/13 00:06:01;;;;;;;;;7.50;7.00;;;;;26.18;51.49;101085.88;4921905;28;45415;-46
2023/09/13 00:08:27;;;;;;;;;8.00;7.00;;;;;26.18;51.67;101086.69;4921571;28;45642;-49
2023/09/13 00:10:52;;;;;;;;;8.25;6.25;;;;;26.19;51.49;101084.91;4920994;28;61873;-41
2023/09/13 00:13:18;;;;;;;;;10.00;7.50;;;;;26.19;51.79;101083.06;4921776;28;45436;-42
2023/09/13 00:15:44;;;;;;;;;7.75;7.00;;;;;26.20;51.48;101090.09;4921726;28;45479;-44
2023/09/13 00:18:14;;;;;;;;;9.25;6.75;;;;;26.18;51.67;101086.69;4921577;28;46222;-45
2023/09/13 00:20:39;;;;;;;;;6.25;6.25;;;;;26.17;51.56;101081.50;4904328;28;45685;-45
2023/09/13 00:23:06;;;;;;;;;8.00;8.00;;;;;26.16;51.76;101093.97;4921438;28;45286;-42
2023/09/13 00:25:31;;;;;;;;;9.00;8.00;;;;;26.15;51.71;101092.25;4921616;28;45316;-44
2023/09/13 00:27:56;;;;;;;;;8.00;8.00;;;;;26.15;51.85;101092.25;4904293;28;46535;-45
2023/09/13 00:30:21;;;;;;;;;7.25;6.75;;;;;26.15;51.68;101083.44;4921138;28;47017;-43
2023/09/13 00:32:47;;;;;;;;;8.50;7.50;;;;;26.15;51.95;101088.75;4921083;28;48421;-45
2023/09/13 00:35:12;;;;;;;;;7.25;7.25;;;;;26.16;51.78;101090.44;4921434;28;45390;-41
2023/09/13 00:37:38;;;;;;;;;9.00;8.00;;;;;26.14;51.62;101090.56;4921074;28;46716;-44
2023/09/13 00:40:04;;;;;;;;;9.50;8.00;;;;;26.14;51.75;101084.38;4919901;28;45451;-44
2023/09/13 00:42:30;;;;;;;;;6.00;6.00;;;;;26.14;51.81;101090.56;4921487;28;45312;-41
2023/09/13 00:44:55;;;;;;;;;7.00;7.00;;;;;26.14;52.07;101089.69;4921398;28;45657;-42
2023/09/13 00:47:21;;;;;;;;;9.00;7.00;;;;;26.14;51.84;101093.22;4920599;28;57845;-41
2023/09/13 00:49:47;;;;;;;;;7.25;7.25;;;;;26.12;51.89;101092.47;4920949;28;45317;-44
2023/09/13 00:52:13;;;;;;;;;8.00;8.00;;;;;26.13;51.87;101093.34;4903967;28;45268;-41
2023/09/13 00:54:39;;;;;;;;;8.75;8.00;;;;;26.12;51.99;101097.78;4903986;28;45523;-40
2023/09/13 00:57:04;;;;;;;;;6.50;6.50;;;;;26.12;51.83;101102.28;4920733;28;46557;-42
2023/09/13 00:59:30;;;;;;;;;8.00;7.00;;;;;26.13;51.81;101103.97;4921101;28;45472;-43
2023/09/13 01:01:55;;;;;;;;;5.00;4.75;;;;;26.11;51.68;101095.25;4920860;28;45415;-42
2023/09/13 01:04:20;;;;;;;;;9.75;5.00;;;;;26.12;51.72;101105.75;4919797;28;45548;-43
2023/09/13 01:06:46;;;;;;;;;10.00;8.00;;;;;26.11;51.77;101101.41;4920712;28;46103;-40
2023/09/13 01:09:14;;;;;;;;;9.00;8.25;;;;;26.12;51.85;101097.78;4920630;28;45367;-47
2023/09/13 01:11:40;;;;;;;;;5.00;5.00;;;;;26.12;51.80;101092.47;4920708;28;45306;-41
2023/09/13 01:14:05;;;;;;;;;7.25;7.25;;;;;26.12;51.70;101087.16;4921011;28;45462;-43
2023/09/13 01:16:39;;;;;;;;;9.00;7.50;;;;;26.13;51.78;101098.66;4920745;28;45419;-42
2023/09/13 01:19:21;;;;;;;;;6.00;6.00;;;;;26.14;51.82;101097.66;4920685;28;45633;-43
2023/09/13 01:22:24;;;;;;;;;8.75;6.75;;;;;26.11;51.56;101098.75;4920619;28;45368;-44
2023/09/13 01:25:16;;;;;;;;;7.50;7.50;;;;;26.12;51.79;101102.28;4903588;28;45393;-43
2023/09/13 01:28:12;;;;;;;;;6.00;6.00;;;;;26.12;51.85;101092.47;4892909;28;45553;-41
2023/09/13 01:30:39;;;;;;;;;9.75;7.50;;;;;26.10;51.81;101094.41;4919330;28;45526;-43
2023/09/13 01:33:04;;;;;;;;;9.00;7.25;;;;;26.11;51.94;101092.59;4903304;28;45273;-41
2023/09/13 01:35:29;;;;;;;;;7.25;6.50;;;;;26.10;51.30;101102.38;4920822;28;45572;-43
2023/09/13 01:37:55;;;;;;;;;9.00;7.00;;;;;26.10;51.98;101094.41;4919428;28;69537;-43
2023/09/13 01:40:25;;;;;;;;;8.50;6.00;;;;;26.10;51.84;101105.03;4919977;28;45412;-46
2023/09/13 01:42:55;;;;;;;;;5.75;5.25;;;;;26.09;51.54;101097.97;4920335;28;45427;-45
2023/09/13 01:45:21;;;;;;;;;6.50;6.50;;;;;26.07;51.73;101103.44;4919233;28;45361;-46
2023/09/13 01:47:47;;;;;;;;;8.00;6.75;;;;;26.08;51.75;101115.75;4920010;28;46453;-45
2023/09/13 01:50:14;;;;;;;;;9.00;7.25;;;;;26.09;51.56;101119.22;4918946;28;45339;-40
2023/09/13 01:52:40;;;;;;;;;8.25;6.50;;;;;26.09;51.82;101119.22;4919944;28;45452;-44
2023/09/13 01:55:06;;;;;;;;;7.50;7.50;;;;;26.07;51.58;101116.72;4920496;28;45492;-42
2023/09/13 01:57:32;;;;;;;;;7.75;7.00;;;;;26.08;51.62;101123.72;4920133;28;46604;-39
2023/09/13 01:59:57;;;;;;;;;6.00;6.00;;;;;26.08;51.75;101122.84;4920044;28;45364;-43
2023/09/13 02:02:22;;;;;;;;;6.25;6.25;;;;;26.08;51.96;101134.34;4919902;28;45190;-42
2023/09/13 02:04:49;;;;;;;;;9.50;7.50;;;;;26.08;51.85;101138.78;4919868;28;45574;-42
2023/09/13 02:07:16;;;;;;;;;7.00;7.00;;;;;26.06;51.89;101136.25;4919821;28;47054;-41
2023/09/13 02:09:42;;;;;;;;;9.00;7.50;;;;;26.08;51.92;101133.47;4919711;28;45712;-42
2023/09/13 02:12:12;;;;;;;;;6.75;6.75;;;;;26.09;51.62;101140.47;4919981;28;45384;-45
2023/09/13 02:14:37;;;;;;;;;10.75;7.25;;;;;26.08;51.42;101139.66;4920052;28;45441;-41
2023/09/13 02:17:03;;;;;;;;;9.50;7.00;;;;;26.07;51.50;101142.44;4919819;28;45464;-41
2023/09/13 02:19:28;;;;;;;;;8.50;8.50;;;;;26.07;51.56;101137.13;4919801;28;45218;-43
2023/09/13 02:21:53;;;;;;;;;8.75;7.25;;;;;26.05;51.56;101128.41;4902626;28;45383;-43
2023/09/13 02:24:19;;;;;;;;;6.25;6.25;;;;;26.06;51.68;101130.94;4919242;28;50851;-45
2023/09/13 02:26:44;;;;;;;;;6.75;6.75;;;;;26.05;51.68;101137.22;4919486;28;45357;-44
2023/09/13 02:29:09;;;;;;;;;7.00;7.00;;;;;26.04;51.44;101135.53;4919494;28;46817;-45
2023/09/13 02:31:35;;;;;;;;;9.75;8.50;;;;;26.05;51.65;101139.03;4919811;28;45264;-43
2023/09/13 02:34:00;;;;;;;;;8.00;7.00;;;;;26.05;51.91;101147.00;4919817;28;45346;-42
2023/09/13 02:36:25;;;;;;;;;10.75;7.00;;;;;26.06;51.56;101151.38;4918599;28;67534;-40
2023/09/13 02:38:52;;;;;;;;;10.75;8.75;;;;;26.07;51.59;101155.72;4918989;28;49372;-44
2023/09/13 02:41:17;;;;;;;;;7.75;7.75;;;;;26.06;51.40;101148.69;4919407;28;45439;-43
2023/09/13 02:43:43;;;;;;;;;8.00;8.00;;;;;26.04;51.27;101146.13;4919574;28;45352;-41
2023/09/13 02:46:08;;;;;;;;;7.75;7.75;;;;;26.05;51.39;101152.31;4919227;28;46591;-41
2023/09/13 02:48:34;;;;;;;;;7.25;7.00;;;;;26.04;51.49;101154.09;4919558;28;45301;-42
2023/09/13 02:50:59;;;;;;;;;6.50;6.25;;;;;26.03;51.37;101159.53;4918973;28;48009;-49
2023/09/13 02:53:25;;;;;;;;;8.00;7.00;;;;;26.03;51.73;101155.06;4919424;28;45571;-44
2023/09/13 02:55:50;;;;;;;;;9.00;7.25;;;;;26.02;52.02;101160.50;4919055;28;45376;-41
2023/09/13 02:58:15;;;;;;;;;6.75;6.75;;;;;26.02;51.63;101163.16;4918601;28;60373;-46
2023/09/13 03:00:43;;;;;;;;;10.50;7.25;;;;;26.02;51.54;101164.00;4919045;28;45516;-47
2023/09/13 03:03:08;;;;;;;;;9.50;9.50;;;;;26.02;51.53;101166.66;4918763;28;45506;-44
2023/09/13 03:05:34;;;;;;;;;9.75;9.75;;;;;26.00;51.81;101160.63;4918922;28;46648;-43
2023/09/13 03:08:00;;;;;;;;;11.75;9.25;;;;;25.96;51.46;101160.97;4919065;28;45246;-48
2023/09/13 03:10:27;;;;;;;;;9.75;8.75;;;;;25.89;51.33;101165.88;4919136;28;45381;-41
2023/09/13 03:12:52;;;;;;;;;7.25;7.25;;;;;25.81;51.19;101158.47;4919184;28;45355;-47
2023/09/13 03:15:17;;;;;;;;;7.50;6.50;;;;;25.77;51.41;101162.31;4918767;28;46183;-44
2023/09/13 03:17:43;;;;;;;;;9.00;6.00;;;;;25.72;51.37;101154.66;4918899;28;45340;-43
2023/09/13 03:20:11;;;;;;;;;9.00;8.25;;;;;25.69;51.49;101160.19;4918936;28;51172;-44
2023/09/13 03:22:37;;;;;;;;;1.50;1.00;;;;;25.62;51.56;101151.84;4919272;28;45536;-47
2023/09/13 03:25:05;;;;;;;;;7.50;7.50;;;;;25.59;51.41;101162.69;4917365;28;47628;-47
2023/09/13 03:27:31;;;;;;;;;9.25;8.25;;;;;25.55;51.42;101169.16;4918779;28;45496;-45
2023/09/13 03:29:58;;;;;;;;;10.00;7.50;;;;;25.52;51.65;101160.56;4918996;28;45418;-40
2023/09/13 03:32:23;;;;;;;;;9.25;7.25;;;;;25.47;51.89;101160.91;4918990;28;45349;-43
2023/09/13 03:34:48;;;;;;;;;6.75;6.75;;;;;25.46;51.56;101165.38;4918198;28;54970;-43
2023/09/13 03:37:14;;;;;;;;;13.50;11.25;;;;;25.42;51.85;101163.91;4901621;28;45371;-40
2023/09/13 03:39:39;;;;;;;;;10.50;8.25;;;;;25.41;51.60;101156.06;4918835;28;45413;-43
2023/09/13 03:42:05;;;;;;;;;8.75;8.75;;;;;25.37;51.93;101154.53;4918765;28;45339;-44
2023/09/13 03:44:30;;;;;;;;;5.75;5.75;;;;;25.35;51.26;101159.97;4918485;28;45518;-44
2023/09/13 03:46:56;;;;;;;;;9.00;6.50;;;;;25.32;51.38;101154.88;4918092;28;56455;-42
2023/09/13 03:49:21;;;;;;;;;7.25;6.50;;;;;25.30;51.55;101154.13;4918611;28;45308;-42
2023/09/13 03:51:47;;;;;;;;;6.50;5.25;;;;;25.28;51.49;101156.03;4901781;28;45449;-44
2023/09/13 03:54:12;;;;;;;;;8.50;8.00;;;;;25.25;51.83;101151.78;4918344;28;45382;-40
2023/09/13 03:56:38;;;;;;;;;5.50;5.50;;;;;25.22;52.36;101152.00;4918240;28;58684;-42
2023/09/13 03:59:03;;;;;;;;;10.50;7.00;;;;;25.21;51.64;101157.44;4918421;28;45185;-46
2023/09/13 04:01:28;;;;;;;;;8.75;6.25;;;;;25.17;51.91;101154.16;4917231;28;45351;-42
2023/09/13 04:03:53;;;;;;;;;8.50;7.00;;;;;25.13;51.92;101148.22;4918282;28;45304;-42
2023/09/13 04:06:19;;;;;;;;;8.00;7.25;;;;;25.11;51.77;101152.78;4918336;28;45355;-46
2023/09/13 04:08:44;;;;;;;;;6.00;5.25;;;;;25.09;52.47;101157.34;4918448;28;45467;-44
2023/09/13 04:11:09;;;;;;;;;7.00;5.50;;;;;25.08;52.23;101155.63;4918477;28;45415;-45
2023/09/13 04:13:35;;;;;;;;;7.75;5.00;;;;;25.05;52.24;101155.84;4918300;28;46446;-42
2023/09/13 04:16:02;;;;;;;;;7.75;7.00;;;;;25.03;52.32;101155.09;4921534;28;45328;-42
2023/09/13 04:18:28;;;;;;;;;5.00;5.00;;;;;25.02;51.76;101150.78;4921513;28;45409;-44
2023/09/13 04:20:53;;;;;;;;;9.00;7.25;;;;;24.99;52.43;101146.50;4921695;28;45258;-43
2023/09/13 04:23:18;;;;;;;;;9.25;7.50;;;;;24.97;51.99;101153.72;4921180;28;46028;-45
2023/09/13 04:25:44;;;;;;;;;5.33;5.33;;;;;24.95;52.50;101150.34;4920779;28;65887;-41
2023/09/13 04:28:09;;;;;;;;;9.00;6.00;;;;;24.95;51.86;101149.47;4921672;28;45510;-44
2023/09/13 04:30:34;;;;;;;;;7.50;4.75;;;;;24.91;51.94;101151.50;4921571;28;45369;-43
2023/09/13 04:33:02;;;;;;;;;9.50;7.25;;;;;24.91;52.55;101151.50;4919676;28;52830;-41
2023/09/13 04:35:27;;;;;;;;;6.75;6.75;;;;;24.88;51.97;101157.00;4921250;28;45266;-48
2023/09/13 04:37:53;;;;;;;;;8.50;7.00;;;;;24.88;52.23;101159.66;4920810;28;56862;-45
2023/09/13 04:40:19;;;;;;;;;9.00;7.50;;;;;24.85;52.83;101159.88;4921308;28;45583;-41
2023/09/13 04:42:54;;;;;;;;;7.00;6.25;;;;;24.82;52.19;101160.09;4921243;28;46565;-44
2023/09/13 04:45:19;;;;;;;;;7.00;7.00;;;;;24.80;52.34;101167.28;4921143;28;45389;-45
2023/09/13 04:47:45;;;;;;;;;7.50;5.50;;;;;24.80;53.06;101167.28;4921695;28;45831;-45
2023/09/13 04:50:10;;;;;;;;;10.25;8.75;;;;;24.79;52.51;101162.94;4920740;28;49318;-42
2023/09/13 04:52:35;;;;;;;;;6.25;6.25;;;;;24.76;52.68;101168.44;4920870;28;46460;-42
2023/09/13 04:55:01;;;;;;;;;8.50;7.00;;;;;24.74;53.18;101168.56;4920915;28;45434;-43
2023/09/13 04:57:26;;;;;;;;;3.75;3.00;;;;;24.72;52.84;101169.63;4903670;28;45356;-40
2023/09/13 04:59:52;;;;;;;;;5.75;3.50;;;;;24.70;52.75;101167.06;4903954;28;45615;-39
2023/09/13 05:02:17;;;;;;;;;8.00;5.25;;;;;24.69;53.07;101163.59;4903547;28;45743;-42
2023/09/13 05:04:43;;;;;;;;;8.00;4.75;;;;;24.68;52.84;101164.53;4921099;28;45426;-43
2023/09/13 05:07:08;;;;;;;;;5.00;5.00;;;;;24.66;52.72;101166.41;4920936;28;45284;-42
2023/09/13 05:09:36;;;;;;;;;6.50;5.00;;;;;24.65;52.90;101175.31;4920995;28;45288;-39
2023/09/13 05:12:01;;;;;;;;;7.00;5.50;;;;;24.65;52.66;101174.47;4920505;28;46232;-41
2023/09/13 05:14:27;;;;;;;;;6.50;6.00;;;;;24.64;53.08;101173.59;4920736;28;45834;-41
2023/09/13 05:16:52;;;;;;;;;5.50;5.50;;;;;24.62;52.92;101175.53;4920789;28;45281;-43
2023/09/13 05:19:20;;;;;;;;;6.00;5.00;;;;;24.64;52.63;101186.00;4920849;28;45471;-40
2023/09/13 05:21:46;;;;;;;;;9.50;7.00;;;;;24.61;52.90;101181.78;4920796;28;45663;-42
2023/09/13 05:24:11;;;;;;;;;6.50;6.50;;;;;24.62;52.80;101183.47;4920496;28;45348;-42
2023/09/13 05:26:37;;;;;;;;;6.75;6.75;;;;;24.61;53.02;101183.56;4919472;28;51790;-40
2023/09/13 05:29:02;;;;;;;;;9.25;7.00;;;;;24.61;52.55;101197.69;4920721;28;45522;-45
2023/09/13 05:31:28;;;;;;;;;6.25;5.00;;;;;24.60;53.01;101203.94;4920263;28;46615;-40
2023/09/13 05:33:54;;;;;;;;;6.00;6.00;;;;;24.60;52.38;101195.13;4919793;28;57440;-41
2023/09/13 05:36:19;;;;;;;;;6.25;6.25;;;;;24.61;52.16;101208.28;4920543;28;45312;-40
2023/09/13 05:38:44;;;;;;;;;8.50;7.75;;;;;24.61;52.43;101210.94;4920772;28;45601;-46
2023/09/13 05:41:11;;;;;;;;;7.00;7.00;;;;;24.62;52.38;101215.28;4919933;28;46420;-40
2023/09/13 05:43:38;;;;;;;;;5.75;4.75;;;;;24.61;52.16;101215.38;4920286;28;45242;-42
2023/09/13 05:46:04;;;;;;;;;8.00;6.50;;;;;24.61;52.54;101213.59;4920322;28;45360;-40
2023/09/13 05:48:29;;;;;;;;;6.00;6.00;;;;;24.61;52.22;101210.06;4920435;28;45632;-42
2023/09/13 05:50:54;;;;;;;;;7.50;6.00;;;;;24.60;52.78;101219.84;4919905;28;45347;-41
2023/09/13 05:53:20;;;;;;;;;7.25;6.75;;;;;24.61;52.67;101221.53;4920034;28;45337;-43
2023/09/13 05:55:46;;;;;;;;;6.25;6.25;;;;;24.60;52.75;101224.25;4920385;28;45477;-39
2023/09/13 05:58:12;;;;;;;;;5.00;4.00;;;;;24.59;52.17;101223.44;4920406;28;45356;-42
2023/09/13 06:00:37;;;;;;;;;7.25;7.25;;;;;24.60;51.97;101232.22;4919687;28;45591;-41
2023/09/13 06:03:03;;;;;;;;;6.75;6.25;;;;;24.60;51.97;101237.50;4902588;28;45399;-43
2023/09/13 06:05:28;;;;;;;;;10.50;8.00;;;;;24.59;52.12;101230.50;4919947;28;45372;-41
2023/09/13 06:07:53;;;;;;;;;10.25;6.75;;;;;24.59;52.51;101236.69;4920009;28;45438;-42
2023/09/13 06:10:18;;;;;;;;;7.00;7.00;;;;;24.58;52.23;101232.31;4919288;28;66453;-43
2023/09/13 06:12:45;;;;;;;;;8.75;8.00;;;;;24.58;52.44;101237.63;4919417;28;55474;-43
2023/09/13 06:15:10;;;;;;;;;8.25;5.50;;;;;24.58;52.05;101247.38;4919842;28;45261;-42
2023/09/13 06:17:38;;;;;;;;;8.75;7.00;;;;;24.57;52.16;101245.69;4919992;28;45482;-40
2023/09/13 06:20:05;;;;;;;;;7.00;6.00;;;;;24.54;52.54;101244.94;4919661;28;45594;-41
2023/09/13 06:22:32;;;;;;;;;8.00;6.00;;;;;24.55;52.34;101240.47;4919558;28;45216;-42
2023/09/13 06:24:58;;;;;;;;;8.50;7.50;;;;;24.52;52.46;101238.88;4919808;28;45395;-38
2023/09/13 06:27:23;;;;;;;;;7.25;6.25;;;;;24.52;52.26;101243.34;4902790;28;45448;-39
2023/09/13 06:29:49;;;;;;;;;7.25;7.00;;;;;24.52;52.91;101243.34;4918344;28;49915;-40
2023/09/13 06:32:14;;;;;;;;;9.75;7.50;;;;;24.49;52.62;101247.03;4919249;28;53542;-42
2023/09/13 06:34:39;;;;;;;;;10.00;7.50;;;;;24.50;52.24;101247.91;4919661;28;45311;-39
2023/09/13 06:37:05;;;;;;;;;6.50;6.25;;;;;24.50;52.19;101248.72;4919354;28;45371;-45
2023/09/13 06:39:30;;;;;;;;;11.50;8.00;;;;;24.53;52.95;101263.56;4918721;28;45384;-41
2023/09/13 06:41:55;;;;;;;;;6.50;6.50;;;;;24.53;52.86;101260.91;4902550;28;45761;-39
2023/09/13 06:44:21;;;;;;;;;11.00;8.25;;;;;24.52;52.59;101261.91;4920160;28;45229;-39
2023/09/13 06:46:46;;;;;;;;;9.75;7.25;;;;;24.53;52.35;101266.22;4919879;28;45218;-46
2023/09/13 06:49:11;;;;;;;;;9.75;8.25;;;;;24.48;52.13;101253.28;4919227;28;45486;-43
2023/09/13 06:51:37;;;;;;;;;8.75;7.25;;;;;24.54;52.67;101259.97;4919216;28;45418;-41
2023/09/13 06:54:02;;;;;;;;;7.25;6.50;;;;;24.54;52.84;101258.19;4919297;28;45296;-41
2023/09/13 06:56:27;;;;;;;;;0.25;0.25;;;;;24.55;52.76;101261.66;4919524;28;45336;-42
2023/09/13 06:58:53;;;;;;;;;7.75;7.00;;;;;24.50;52.48;101248.72;4918712;28;63241;-42
2023/09/13 07:01:19;;;;;;;;;9.00;8.00;;;;;24.53;52.08;101260.91;4919395;28;45257;-40
2023/09/13 07:03:44;;;;;;;;;8.25;7.00;;;;;24.50;52.52;101261.16;4919198;28;45275;-39
2023/09/13 07:06:11;;;;;;;;;7.75;7.00;;;;;24.45;52.13;101264.09;4919193;28;45478;-42
2023/09/13 07:08:36;;;;;;;;;8.75;6.00;;;;;24.42;52.74;101263.44;4918782;28;45548;-42
2023/09/13 07:11:02;;;;;;;;;7.50;4.50;;;;;24.41;52.48;101269.69;4918772;28;45350;-42
2023/09/13 07:13:30;;;;;;;;;5.50;5.50;;;;;24.41;52.76;101264.41;4919010;28;45386;-42
2023/09/13 07:15:56;;;;;;;;;9.50;7.00;;;;;24.43;52.41;101265.13;4919231;28;45532;-41
2023/09/13 07:18:23;;;;;;;;;10.50;9.25;;;;;24.44;52.13;101270.34;4918984;28;46442;-47
2023/09/13 07:20:48;;;;;;;;;17.50;13.25;;;;;24.44;52.54;101269.47;4918668;28;45323;-45
2023/09/13 07:23:13;;;;;;;;;16.50;15.25;;;;;24.48;52.67;101274.47;4918054;28;55782;-43
2023/09/13 07:25:39;;;;;;;;;13.75;9.25;;;;;24.48;52.35;101268.34;4918735;28;45538;-40
2023/09/13 07:28:04;;;;;;;;;19.00;14.00;;;;;24.50;52.66;101279.69;4918577;28;49151;-41
2023/09/13 07:30:30;;;;;;;;;14.25;12.00;;;;;24.51;52.17;101282.22;4918706;28;45352;-41
2023/09/13 07:32:55;;;;;;;;;13.25;10.25;;;;;24.53;52.48;101282.13;4918834;28;45366;-38
2023/09/13 07:35:20;;;;;;;;;11.50;10.00;;;;;24.58;52.29;101287.97;4919094;28;45597;-38
2023/09/13 07:37:47;;;;;;;;;10.75;10.00;;;;;24.61;52.00;101290.44;4915734;28;45596;-40
2023/09/13 07:40:12;;;;;;;;;10.25;9.25;;;;;24.62;52.53;101292.13;4917151;28;45822;-39
2023/09/13 07:42:37;;;;;;;;;13.75;8.00;;;;;24.65;51.86;101294.56;4917268;28;45527;-42
2023/09/13 07:45:03;;;;;;;;;6.50;5.50;;;;;24.67;52.16;101305.09;4917920;28;45358;-42
2023/09/13 07:47:29;;;;;;;;;7.00;7.00;;;;;24.67;52.44;101300.63;4916917;28;45461;-38
2023/09/13 07:49:58;;;;;;;;;12.00;8.75;;;;;24.69;52.27;101298.75;4919430;28;45397;-46
2023/09/13 07:52:24;;;;;;;;;4.25;3.50;;;;;24.73;51.65;101314.47;4920556;28;45296;-42
2023/09/13 07:54:50;;;;;;;;;9.50;7.00;;;;;24.73;52.10;101314.47;4921287;28;45317;-43
2023/09/13 07:57:15;;;;;;;;;6.75;6.50;;;;;24.76;51.92;101314.25;4921054;28;45400;-42
2023/09/13 07:59:40;;;;;;;;;8.75;7.75;;;;;24.76;52.05;101320.41;4920844;28;45586;-46
2023/09/13 08:02:06;;;;;;;;;9.00;6.75;;;;;24.74;51.49;101321.47;4920281;28;47901;-42
2023/09/13 08:04:31;;;;;;;;;8.50;7.50;;;;;24.76;51.37;101324.84;4921202;28;45594;-42
2023/09/13 08:06:56;;;;;;;;;7.75;7.25;;;;;24.77;51.48;101330.06;4919866;28;45377;-40
2023/09/13 08:09:22;;;;;;;;;9.00;8.00;;;;;24.77;51.65;101326.53;4921225;28;45300;-41
2023/09/13 08:11:48;;;;;;;;;8.25;7.75;;;;;24.77;52.16;101331.84;4919385;28;45412;-48
2023/09/13 08:14:13;;;;;;;;;9.00;8.25;;;;;24.76;51.60;101330.16;4920876;28;45447;-46
2023/09/13 08:16:39;;;;;;;;;7.50;7.25;;;;;24.78;51.41;101338.84;4920598;28;46476;-41
2023/09/13 08:19:04;;;;;;;;;10.00;9.00;;;;;24.77;51.93;101337.16;4920633;28;45441;-43
2023/09/13 08:21:29;;;;;;;;;7.25;6.75;;;;;24.77;51.60;101338.00;4920300;28;45540;-43
2023/09/13 08:23:55;;;;;;;;;7.00;6.25;;;;;24.77;51.79;101340.66;4921187;28;45292;-46
2023/09/13 08:26:20;;;;;;;;;7.00;7.00;;;;;24.76;51.66;101335.44;4920399;28;46826;-44
2023/09/13 08:28:45;;;;;;;;;5.75;5.75;;;;;24.78;51.33;101344.16;4903452;28;45365;-41
2023/09/13 08:31:11;;;;;;;;;8.75;8.25;;;;;24.78;52.03;101349.47;4920456;28;45314;-44
2023/09/13 08:33:36;;;;;;;;;8.00;6.00;;;;;24.79;51.27;101359.13;4920463;28;45250;-43
2023/09/13 08:36:02;;;;;;;;;9.00;7.25;;;;;24.81;51.64;101371.31;4920240;28;47299;-44
2023/09/13 08:38:28;;;;;;;;;5.50;5.25;;;;;24.81;51.50;101365.16;4920175;28;45316;-45
2023/09/13 08:40:54;;;;;;;;;8.00;5.00;;;;;24.79;51.52;101377.66;4920504;28;45388;-46
2023/09/13 08:43:21;;;;;;;;;9.00;8.00;;;;;24.80;51.69;101379.38;4920240;28;45245;-42
2023/09/13 08:45:48;;;;;;;;;9.75;7.25;;;;;24.79;51.58;101385.63;4919121;28;46625;-46
2023/09/13 08:48:16;;;;;;;;;10.00;7.75;;;;;24.79;51.72;101383.84;4920165;28;45834;-46
2023/09/13 08:50:42;;;;;;;;;8.50;8.25;;;;;24.77;52.00;101385.72;4920386;28;45229;-40
2023/09/13 08:53:10;;;;;;;;;8.25;7.75;;;;;24.76;51.55;101391.13;4919874;28;45413;-43
2023/09/13 08:55:37;;;;;;;;;9.00;6.75;;;;;24.75;51.55;101395.59;4920090;28;46540;-45
2023/09/13 08:58:03;;;;;;;;;11.00;9.75;;;;;24.75;51.53;101392.09;4919923;28;45528;-46
2023/09/13 09:00:33;;;;;;;;;11.50;7.75;;;;;24.76;51.87;101396.41;4919427;28;45326;-43
2023/09/13 09:03:04;;;;;;;;;9.50;8.75;;;;;24.74;51.14;101390.38;4920252;28;45252;-45
2023/09/13 09:05:31;;;;;;;;;8.25;7.75;;;;;24.72;51.42;101393.13;4920432;28;45427;-46
2023/09/13 09:07:58;;;;;;;;;10.75;7.75;;;;;24.73;51.35;101405.44;4920024;28;45740;-41
2023/09/13 09:10:24;;;;;;;;;7.50;7.25;;;;;24.70;51.00;101403.84;4920304;28;45447;-48
2023/09/13 09:12:55;;;;;;;;;9.75;7.50;;;;;24.69;51.32;101407.44;4919745;28;45435;-45
2023/09/13 09:15:22;;;;;;;;;8.00;8.00;;;;;24.67;50.95;101397.84;4920667;28;46369;-43
2023/09/13 09:17:49;;;;;;;;;8.25;6.50;;;;;24.63;50.97;101405.16;4920758;28;45277;-44
2023/09/13 09:20:15;;;;;;;;;9.00;7.50;;;;;24.60;50.87;101410.66;4920652;28;45478;-46
2023/09/13 09:22:41;;;;;;;;;9.00;7.75;;;;;24.59;51.07;101402.78;4920698;28;45532;-43
2023/09/13 09:25:10;;;;;;;;;6.25;6.25;;;;;24.58;51.14;101409.03;4920348;28;45343;-45
2023/09/13 09:27:37;;;;;;;;;8.00;8.00;;;;;24.57;51.55;101410.81;4920526;28;45337;-46
2023/09/13 09:30:03;;;;;;;;;10.75;7.75;;;;;24.56;51.15;101414.44;4920530;28;45399;-45
2023/09/13 09:32:29;;;;;;;;;9.75;6.75;;;;;24.53;51.22;101414.59;4920864;28;45546;-41
2023/09/13 09:34:58;;;;;;;;;10.25;8.50;;;;;24.51;51.17;101417.38;4920241;28;46290;-41
2023/09/13 09:37:31;;;;;;;;;8.75;7.50;;;;;24.49;51.72;101419.25;4920369;28;45365;-41
2023/09/13 09:39:57;;;;;;;;;10.75;9.75;;;;;24.48;51.59;101416.72;4920586;28;45419;-45
2023/09/13 09:42:22;;;;;;;;;7.00;6.50;;;;;24.46;51.45;101415.97;4920321;28;45478;-46
2023/09/13 09:44:48;;;;;;;;;11.75;8.50;;;;;24.43;52.05;101414.34;4919592;28;46252;-43
2023/09/13 09:47:14;;;;;;;;;9.75;7.00;;;;;24.43;51.94;101416.16;4919951;28;45312;-44
2023/09/13 09:49:43;;;;;;;;;12.25;7.50;;;;;24.43;51.87;101424.09;4920178;28;45380;-45
2023/09/13 09:52:10;;;;;;;;;6.75;6.75;;;;;24.42;51.97;101412.66;4920494;28;45345;-44
2023/09/13 09:54:39;;;;;;;;;8.75;7.25;;;;;24.43;52.12;101424.09;4919935;28;46904;-46
2023/09/13 09:57:06;;;;;;;;;11.00;8.00;;;;;24.43;51.84;101424.97;4920028;28;45407;-41
2023/09/13 09:59:34;;;;;;;;;8.25;7.00;;;;;24.44;51.73;101433.75;4920331;28;45482;-41
2023/09/13 10:02:01;;;;;;;;;6.50;6.50;;;;;24.43;51.58;101434.69;4903397;28;45536;-40
2023/09/13 10:04:26;;;;;;;;;10.00;6.75;;;;;24.40;51.83;101433.09;4919807;28;45695;-48
2023/09/13 10:06:57;;;;;;;;;6.00;6.00;;;;;24.38;51.56;101441.16;4918565;28;45382;-41
2023/09/13 10:09:23;;;;;;;;;6.25;6.25;;;;;24.37;51.55;101431.50;4920095;28;45411;-39
2023/09/13 10:11:56;;;;;;;;;8.00;6.75;;;;;24.37;51.39;101436.78;4919868;28;45714;-43
2023/09/13 10:14:26;;;;;;;;;6.00;6.00;;;;;24.39;51.27;101434.91;4919879;28;45481;-44
2023/09/13 10:16:54;;;;;;;;;8.25;7.00;;;;;24.39;51.65;101434.03;4919644;28;45446;-40
2023/09/13 10:19:23;;;;;;;;;7.50;7.00;;;;;24.42;51.75;101433.00;4919830;28;45456;-42
2023/09/13 10:21:50;;;;;;;;;6.00;6.00;;;;;24.42;51.24;101431.19;4919687;28;45233;-40
2023/09/13 10:24:20;;;;;;;;;9.25;7.75;;;;;24.41;51.46;101439.25;4919464;28;45289;-40
2023/09/13 10:26:45;;;;;;;;;10.00;6.50;;;;;24.43;51.43;101434.69;4919429;28;45926;-42
2023/09/13 10:29:34;;;;;;;;;7.75;7.00;;;;;24.42;51.68;101428.56;4918417;28;45207;-40
2023/09/13 10:32:05;;;;;;;;;9.25;6.50;;;;;24.49;51.44;101434.31;4919368;28;45459;-45
2023/09/13 10:34:34;;;;;;;;;8.50;6.00;;;;;24.51;51.31;101435.09;4919666;28;45542;-41
2023/09/13 10:37:09;;;;;;;;;7.00;7.00;;;;;24.52;51.04;101434.97;4919407;28;45676;-38
2023/09/13 10:39:42;;;;;;;;;8.50;7.00;;;;;24.54;51.60;101438.38;4919704;28;45457;-42
2023/09/13 10:42:08;;;;;;;;;8.50;6.25;;;;;24.56;50.85;101432.97;4919758;28;45428;-41
2023/09/13 10:44:35;;;;;;;;;7.00;5.25;;;;;24.57;50.84;101442.63;4919581;28;47123;-44
2023/09/13 10:47:03;;;;;;;;;7.00;5.25;;;;;24.57;50.84;101432.03;4919542;28;45832;-39
2023/09/13 10:49:28;;;;;;;;;5.25;5.25;;;;;24.59;51.30;101439.88;4919289;28;45352;-43
2023/09/13 10:51:56;;;;;;;;;8.00;7.00;;;;;24.60;51.30;101429.19;4919430;28;45574;-43
2023/09/13 10:54:22;;;;;;;;;6.25;6.00;;;;;24.64;50.92;101433.31;4918975;28;45421;-48
2023/09/13 10:56:49;;;;;;;;;8.50;7.25;;;;;24.65;50.71;101426.25;4919075;28;45287;-42
2023/09/13 10:59:19;;;;;;;;;8.00;6.75;;;;;24.67;50.48;101432.31;4919214;28;45335;-43
2023/09/13 11:01:48;;;;;;;;;5.25;5.00;;;;;24.69;50.42;101433.09;4919173;28;45356;-41
2023/09/13 11:04:16;;;;;;;;;5.75;5.75;;;;;24.70;49.96;101438.28;4918647;28;45330;-45
2023/09/13 11:06:43;;;;;;;;;5.50;4.00;;;;;24.73;50.61;101431.94;4918839;28;45681;-39
2023/09/13 11:09:17;;;;;;;;;6.00;6.00;;;;;24.75;50.46;101434.50;4919071;28;45470;-44
2023/09/13 11:11:47;;;;;;;;;5.25;4.75;;;;;24.78;49.77;101436.94;4918926;28;45337;-43
2023/09/13 11:14:17;;;;;;;;;6.00;5.00;;;;;24.79;49.99;101436.84;4918814;28;45845;-44
2023/09/13 11:16:43;;;;;;;;;4.75;4.25;;;;;24.80;50.02;101432.41;4901634;28;45805;-43
2023/09/13 11:19:10;;;;;;;;;4.50;4.50;;;;;24.82;49.37;101433.16;4918844;28;45436;-46
2023/09/13 11:21:50;;;;;;;;;5.00;4.25;;;;;24.83;49.70;101432.19;4919126;28;45585;-41